sensor_id;sensor_type;location;lat;lon;timestamp;pressure;altitude;pressure_sealevel;temperature;humidity
6136;BME280;24008;42.664;23.372;2024-01-30T00:00:03;96616.81;;;-1.98;72.24
6136;BME280;24008;42.664;23.372;2024-01-30T00:02:31;96644.63;;;-1.54;72.04
6136;BME280;24008;42.664;23.372;2024-01-30T00:04:58;96634.72;;;-1.61;72.16
6136;BME280;24008;42.664;23.372;2024-01-30T00:07:30;96647.13;;;-1.52;72.54
6136;BME280;24008;42.664;23.372;2024-01-30T00:09:57;96592.50;;;-1.92;72.20
6136;BME280;24008;42.664;23.372;2024-01-30T00:12:23;96614.84;;;-1.75;72.13
6136;BME280;24008;42.664;23.372;2024-01-30T00:14:51;96625.72;;;-1.76;72.04
6136;BME280;24008;42.664;23.372;2024-01-30T00:17:18;96623.22;;;-1.76;72.22
6136;BME280;24008;42.664;23.372;2024-01-30T00:19:46;96633.06;;;-1.64;72.10
6136;BME280;24008;42.664;23.372;2024-01-30T00:22:12;96620.66;;;-1.71;72.27
6136;BME280;24008;42.664;23.372;2024-01-30T00:24:40;96617.31;;;-1.70;71.79
6136;BME280;24008;42.664;23.372;2024-01-30T00:27:08;96600.00;;;-1.90;71.81
6136;BME280;24008;42.664;23.372;2024-01-30T00:29:34;96602.53;;;-1.92;72.18
6136;BME280;24008;42.664;23.372;2024-01-30T00:32:01;96633.19;;;-1.73;71.76
6136;BME280;24008;42.664;23.372;2024-01-30T00:34:28;96663.97;;;-1.62;72.08
6136;BME280;24008;42.664;23.372;2024-01-30T00:36:55;96662.28;;;-1.60;72.21
6136;BME280;24008;42.664;23.372;2024-01-30T00:39:21;96663.94;;;-1.59;72.50
6136;BME280;24008;42.664;23.372;2024-01-30T00:41:50;96658.03;;;-1.56;72.30
6136;BME280;24008;42.664;23.372;2024-01-30T00:44:16;96658.84;;;-1.54;71.76
6136;BME280;24008;42.664;23.372;2024-01-30T00:46:44;96634.00;;;-1.69;71.95
6136;BME280;24008;42.664;23.372;2024-01-30T00:49:10;96659.69;;;-1.55;71.85
6136;BME280;24008;42.664;23.372;2024-01-30T00:51:37;96656.44;;;-1.62;72.00
6136;BME280;24008;42.664;23.372;2024-01-30T00:54:04;96686.56;;;-1.63;71.94
6136;BME280;24008;42.664;23.372;2024-01-30T00:56:31;96656.50;;;-1.68;72.11
6136;BME280;24008;42.664;23.372;2024-01-30T00:59:00;96653.25;;;-1.73;72.74
6136;BME280;24008;42.664;23.372;2024-01-30T01:01:26;96653.31;;;-1.79;73.08
6136;BME280;24008;42.664;23.372;2024-01-30T01:03:53;96656.75;;;-1.86;73.09
6136;BME280;24008;42.664;23.372;2024-01-30T01:06:19;96660.94;;;-1.87;72.86
6136;BME280;24008;42.664;23.372;2024-01-30T01:08:46;96648.44;;;-1.88;72.68
6136;BME280;24008;42.664;23.372;2024-01-30T01:11:13;96619.53;;;-2.15;72.82
6136;BME280;24008;42.664;23.372;2024-01-30T01:13:39;96630.28;;;-2.05;73.18
6136;BME280;24008;42.664;23.372;2024-01-30T01:16:07;96651.84;;;-1.94;73.13
6136;BME280;24008;42.664;23.372;2024-01-30T01:18:34;96598.06;;;-2.34;73.15
6136;BME280;24008;42.664;23.372;2024-01-30T01:21:01;96635.34;;;-2.10;73.09
6136;BME280;24008;42.664;23.372;2024-01-30T01:23:27;96611.31;;;-2.26;73.29
6136;BME280;24008;42.664;23.372;2024-01-30T01:25:54;96615.44;;;-2.21;73.70
6136;BME280;24008;42.664;23.372;2024-01-30T01:28:21;96658.56;;;-1.97;73.44
6136;BME280;24008;42.664;23.372;2024-01-30T01:30:47;96519.38;;;-2.85;73.36
6136;BME280;24008;42.664;23.372;2024-01-30T01:33:15;96627.97;;;-2.21;73.41
6136;BME280;24008;42.664;23.372;2024-01-30T01:35:42;96655.28;;;-2.01;73.78
6136;BME280;24008;42.664;23.372;2024-01-30T01:38:10;96659.44;;;-2.01;73.47
6136;BME280;24008;42.664;23.372;2024-01-30T01:40:37;96556.66;;;-2.64;73.80
6136;BME280;24008;42.664;23.372;2024-01-30T01:43:05;96659.47;;;-2.03;73.19
6136;BME280;24008;42.664;23.372;2024-01-30T01:45:31;96608.09;;;-2.37;73.94
6136;BME280;24008;42.664;23.372;2024-01-30T01:47:58;96637.88;;;-2.13;73.84
6136;BME280;24008;42.664;23.372;2024-01-30T01:50:26;96667.78;;;-1.98;73.48
6136;BME280;24008;42.664;23.372;2024-01-30T01:52:54;96675.28;;;-1.96;73.83
6136;BME280;24008;42.664;23.372;2024-01-30T01:55:21;96616.22;;;-2.17;73.83
6136;BME280;24008;42.664;23.372;2024-01-30T01:57:50;96665.25;;;-1.96;73.25
6136;BME280;24008;42.664;23.372;2024-01-30T02:00:17;96623.78;;;-2.22;73.75
6136;BME280;24008;42.664;23.372;2024-01-30T02:02:45;96671.00;;;-1.90;73.52
6136;BME280;24008;42.664;23.372;2024-01-30T02:05:12;96677.66;;;-1.86;73.68
6136;BME280;24008;42.664;23.372;2024-01-30T02:07:42;96638.53;;;-1.97;74.22
6136;BME280;24008;42.664;23.372;2024-01-30T02:10:10;96666.63;;;-1.74;74.09
6136;BME280;24008;42.664;23.372;2024-01-30T02:12:37;96565.53;;;-2.36;72.97
6136;BME280;24008;42.664;23.372;2024-01-30T02:15:05;96668.28;;;-1.70;73.53
6136;BME280;24008;42.664;23.372;2024-01-30T02:17:33;96663.25;;;-1.70;73.02
6136;BME280;24008;42.664;23.372;2024-01-30T02:20:00;96600.31;;;-2.13;72.99
6136;BME280;24008;42.664;23.372;2024-01-30T02:22:28;96551.44;;;-2.43;73.01
6136;BME280;24008;42.664;23.372;2024-01-30T02:24:56;96669.97;;;-1.72;72.94
6136;BME280;24008;42.664;23.372;2024-01-30T02:27:35;96658.25;;;-1.70;73.27
6136;BME280;24008;42.664;23.372;2024-01-30T02:32:48;96669.06;;;-1.68;73.13
6136;BME280;24008;42.664;23.372;2024-01-30T02:35:16;96665.69;;;-1.67;73.16
6136;BME280;24008;42.664;23.372;2024-01-30T02:37:44;96660.69;;;-1.67;72.49
6136;BME280;24008;42.664;23.372;2024-01-30T02:40:11;96664.00;;;-1.65;71.66
6136;BME280;24008;42.664;23.372;2024-01-30T02:42:39;96557.94;;;-2.30;71.41
6136;BME280;24008;42.664;23.372;2024-01-30T02:45:08;96612.63;;;-1.95;71.31
6136;BME280;24008;42.664;23.372;2024-01-30T02:47:34;96630.84;;;-1.84;71.28
6136;BME280;24008;42.664;23.372;2024-01-30T02:50:01;96662.31;;;-1.64;71.55
6136;BME280;24008;42.664;23.372;2024-01-30T02:52:28;96576.34;;;-2.34;71.36
6136;BME280;24008;42.664;23.372;2024-01-30T02:54:56;96661.47;;;-1.62;71.71
6136;BME280;24008;42.664;23.372;2024-01-30T02:57:23;96575.31;;;-2.17;71.47
6136;BME280;24008;42.664;23.372;2024-01-30T02:59:49;96663.88;;;-1.56;72.09
6136;BME280;24008;42.664;23.372;2024-01-30T03:02:16;96660.50;;;-1.55;71.81
6136;BME280;24008;42.664;23.372;2024-01-30T03:04:43;96661.38;;;-1.56;71.52
6136;BME280;24008;42.664;23.372;2024-01-30T03:07:09;96652.16;;;-1.55;70.83
6136;BME280;24008;42.664;23.372;2024-01-30T03:09:36;96607.47;;;-1.84;70.80
6136;BME280;24008;42.664;23.372;2024-01-30T03:12:05;96533.75;;;-2.31;70.03
6136;BME280;24008;42.664;23.372;2024-01-30T03:14:32;96674.00;;;-1.62;69.82
6136;BME280;24008;42.664;23.372;2024-01-30T03:16:59;96658.09;;;-1.61;69.53
6136;BME280;24008;42.664;23.372;2024-01-30T03:19:25;96658.09;;;-1.59;69.65
6136;BME280;24008;42.664;23.372;2024-01-30T03:21:52;96658.06;;;-1.58;69.59
6136;BME280;24008;42.664;23.372;2024-01-30T03:24:19;96651.41;;;-1.59;69.88
6136;BME280;24008;42.664;23.372;2024-01-30T03:26:46;96573.53;;;-2.09;69.36
6136;BME280;24008;42.664;23.372;2024-01-30T03:29:14;96655.59;;;-1.59;69.53
6136;BME280;24008;42.664;23.372;2024-01-30T03:31:41;96611.56;;;-1.80;69.62
6136;BME280;24008;42.664;23.372;2024-01-30T03:34:07;96649.69;;;-1.57;69.73
6136;BME280;24008;42.664;23.372;2024-01-30T03:36:34;96668.00;;;-1.52;69.49
6136;BME280;24008;42.664;23.372;2024-01-30T03:39:01;96646.25;;;-1.50;69.56
6136;BME280;24008;42.664;23.372;2024-01-30T03:41:28;96646.25;;;-1.50;69.35
6136;BME280;24008;42.664;23.372;2024-01-30T03:43:55;96648.75;;;-1.48;69.64
6136;BME280;24008;42.664;23.372;2024-01-30T03:46:23;96652.94;;;-1.49;70.00
6136;BME280;24008;42.664;23.372;2024-01-30T03:48:49;96609.84;;;-1.75;70.13
6136;BME280;24008;42.664;23.372;2024-01-30T03:51:16;96608.97;;;-1.74;70.15
6136;BME280;24008;42.664;23.372;2024-01-30T03:53:43;96617.22;;;-1.66;69.10
6136;BME280;24008;42.664;23.372;2024-01-30T03:56:11;96637.88;;;-1.49;69.89
6136;BME280;24008;42.664;23.372;2024-01-30T03:58:38;96636.25;;;-1.53;70.11
6136;BME280;24008;42.664;23.372;2024-01-30T04:01:05;96567.50;;;-1.95;69.68
6136;BME280;24008;42.664;23.372;2024-01-30T04:03:33;96512.09;;;-2.35;70.29
6136;BME280;24008;42.664;23.372;2024-01-30T04:06:00;96585.66;;;-1.79;69.57
6136;BME280;24008;42.664;23.372;2024-01-30T04:08:26;96428.34;;;-2.77;69.94
6136;BME280;24008;42.664;23.372;2024-01-30T04:10:53;96546.66;;;-1.98;69.04
6136;BME280;24008;42.664;23.372;2024-01-30T04:13:19;96634.47;;;-1.45;69.43
6136;BME280;24008;42.664;23.372;2024-01-30T04:15:46;96630.34;;;-1.47;69.62
6136;BME280;24008;42.664;23.372;2024-01-30T04:18:13;96641.13;;;-1.43;69.65
6136;BME280;24008;42.664;23.372;2024-01-30T04:20:41;96654.59;;;-1.48;69.49
6136;BME280;24008;42.664;23.372;2024-01-30T04:23:08;96639.47;;;-1.45;69.13
6136;BME280;24008;42.664;23.372;2024-01-30T04:25:34;96605.47;;;-1.61;69.50
6136;BME280;24008;42.664;23.372;2024-01-30T04:28:01;96574.03;;;-1.83;69.39
6136;BME280;24008;42.664;23.372;2024-01-30T04:30:28;96641.19;;;-1.47;69.41
6136;BME280;24008;42.664;23.372;2024-01-30T04:32:55;96604.81;;;-1.75;69.54
6136;BME280;24008;42.664;23.372;2024-01-30T04:35:22;96643.88;;;-1.57;69.57
6136;BME280;24008;42.664;23.372;2024-01-30T04:37:54;96647.22;;;-1.58;69.31
6136;BME280;24008;42.664;23.372;2024-01-30T04:40:21;96646.44;;;-1.65;68.44
6136;BME280;24008;42.664;23.372;2024-01-30T04:42:49;96649.81;;;-1.66;68.30
6136;BME280;24008;42.664;23.372;2024-01-30T04:45:19;96654.84;;;-1.69;68.86
6136;BME280;24008;42.664;23.372;2024-01-30T04:47:46;96616.72;;;-1.91;68.68
6136;BME280;24008;42.664;23.372;2024-01-30T04:50:13;96564.59;;;-2.29;68.57
6136;BME280;24008;42.664;23.372;2024-01-30T04:52:40;96621.88;;;-2.01;69.02
6136;BME280;24008;42.664;23.372;2024-01-30T04:55:08;96574.59;;;-2.29;69.06
6136;BME280;24008;42.664;23.372;2024-01-30T04:57:35;96609.50;;;-2.15;69.26
6136;BME280;24008;42.664;23.372;2024-01-30T05:00:02;96665.03;;;-1.81;69.25
6136;BME280;24008;42.664;23.372;2024-01-30T05:02:30;96671.78;;;-1.83;69.51
6136;BME280;24008;42.664;23.372;2024-01-30T05:04:57;96651.06;;;-1.97;69.88
6136;BME280;24008;42.664;23.372;2024-01-30T05:07:24;96675.16;;;-1.87;70.11
6136;BME280;24008;42.664;23.372;2024-01-30T05:09:51;96585.59;;;-2.40;70.18
6136;BME280;24008;42.664;23.372;2024-01-30T05:12:20;96640.41;;;-2.16;70.70
6136;BME280;24008;42.664;23.372;2024-01-30T05:14:47;96604.06;;;-2.49;70.62
6136;BME280;24008;42.664;23.372;2024-01-30T05:17:13;96666.28;;;-2.14;70.42
6136;BME280;24008;42.664;23.372;2024-01-30T05:19:40;96672.19;;;-2.20;70.91
6136;BME280;24008;42.664;23.372;2024-01-30T05:22:07;96670.53;;;-2.21;70.40
6136;BME280;24008;42.664;23.372;2024-01-30T05:24:34;96668.06;;;-2.24;70.54
6136;BME280;24008;42.664;23.372;2024-01-30T05:27:01;96630.84;;;-2.54;70.16
6136;BME280;24008;42.664;23.372;2024-01-30T05:29:29;96611.66;;;-2.55;69.98
6136;BME280;24008;42.664;23.372;2024-01-30T05:31:55;96671.31;;;-2.15;69.96
6136;BME280;24008;42.664;23.372;2024-01-30T05:34:22;96689.66;;;-2.13;69.69
6136;BME280;24008;42.664;23.372;2024-01-30T05:36:49;96673.81;;;-2.15;69.98
6136;BME280;24008;42.664;23.372;2024-01-30T05:39:15;96597.53;;;-2.62;69.69
6136;BME280;24008;42.664;23.372;2024-01-30T05:41:42;96676.31;;;-2.14;69.17
6136;BME280;24008;42.664;23.372;2024-01-30T05:44:09;96638.16;;;-2.37;68.87
6136;BME280;24008;42.664;23.372;2024-01-30T05:46:37;96681.28;;;-2.12;68.74
6136;BME280;24008;42.664;23.372;2024-01-30T05:49:03;96590.03;;;-2.65;68.53
6136;BME280;24008;42.664;23.372;2024-01-30T05:51:31;96679.59;;;-2.09;68.73
6136;BME280;24008;42.664;23.372;2024-01-30T05:53:58;96679.63;;;-2.12;68.92
6136;BME280;24008;42.664;23.372;2024-01-30T05:56:24;96679.59;;;-2.09;69.26
6136;BME280;24008;42.664;23.372;2024-01-30T05:58:51;96682.03;;;-2.04;69.35
6136;BME280;24008;42.664;23.372;2024-01-30T06:01:18;96632.22;;;-2.29;69.31
6136;BME280;24008;42.664;23.372;2024-01-30T06:03:46;96675.31;;;-1.99;69.60
6136;BME280;24008;42.664;23.372;2024-01-30T06:06:12;96679.44;;;-1.95;69.83
6136;BME280;24008;42.664;23.372;2024-01-30T06:08:39;96647.00;;;-2.07;68.82
6136;BME280;24008;42.664;23.372;2024-01-30T06:11:10;96631.13;;;-2.06;67.82
6136;BME280;24008;42.664;23.372;2024-01-30T06:13:36;96685.03;;;-1.75;67.31
6136;BME280;24008;42.664;23.372;2024-01-30T06:16:03;96650.13;;;-1.90;67.94
6136;BME280;24008;42.664;23.372;2024-01-30T06:18:31;96603.56;;;-2.06;67.48
6136;BME280;24008;42.664;23.372;2024-01-30T06:20:59;96662.44;;;-1.72;66.47
6136;BME280;24008;42.664;23.372;2024-01-30T06:23:26;96635.94;;;-1.93;67.11
6136;BME280;24008;42.664;23.372;2024-01-30T06:25:52;96627.56;;;-1.89;66.71
6136;BME280;24008;42.664;23.372;2024-01-30T06:31:04;96686.34;;;-1.47;66.34
6136;BME280;24008;42.664;23.372;2024-01-30T06:33:31;96428.00;;;-2.49;67.18
6136;BME280;24008;42.664;23.372;2024-01-30T06:35:59;96682.88;;;0.11;66.68
6136;BME280;24008;42.664;23.372;2024-01-30T06:38:26;96686.56;;;1.11;65.44
6136;BME280;24008;42.664;23.372;2024-01-30T06:40:52;96686.34;;;1.86;61.58
6136;BME280;24008;42.664;23.372;2024-01-30T06:43:19;96647.16;;;2.05;58.97
6136;BME280;24008;42.664;23.372;2024-01-30T06:45:46;96682.22;;;2.44;57.81
6136;BME280;24008;42.664;23.372;2024-01-30T06:48:12;96615.63;;;2.20;55.92
6136;BME280;24008;42.664;23.372;2024-01-30T06:50:39;96657.25;;;3.43;53.76
6136;BME280;24008;42.664;23.372;2024-01-30T06:53:07;96687.47;;;4.44;50.23
6136;BME280;24008;42.664;23.372;2024-01-30T06:55:34;96693.19;;;4.94;47.94
6136;BME280;24008;42.664;23.372;2024-01-30T06:58:01;96692.22;;;4.75;47.54
6136;BME280;24008;42.664;23.372;2024-01-30T07:00:28;96692.38;;;4.94;46.07
6136;BME280;24008;42.664;23.372;2024-01-30T07:02:54;96674.06;;;4.64;47.50
6136;BME280;24008;42.664;23.372;2024-01-30T07:05:21;96696.13;;;5.05;46.83
6136;BME280;24008;42.664;23.372;2024-01-30T07:07:48;96720.47;;;5.10;46.36
6136;BME280;24008;42.664;23.372;2024-01-30T07:10:16;96692.38;;;5.36;45.30
6136;BME280;24008;42.664;23.372;2024-01-30T07:12:43;96696.09;;;5.69;45.61
6136;BME280;24008;42.664;23.372;2024-01-30T07:15:10;96676.09;;;6.41;43.79
6136;BME280;24008;42.664;23.372;2024-01-30T07:17:36;96637.13;;;6.97;39.25
6136;BME280;24008;42.664;23.372;2024-01-30T07:20:04;96663.31;;;7.16;37.33
6136;BME280;24008;42.664;23.372;2024-01-30T07:22:31;96691.09;;;7.38;38.11
6136;BME280;24008;42.664;23.372;2024-01-30T07:24:59;96636.78;;;7.56;38.44
6136;BME280;24008;42.664;23.372;2024-01-30T07:27:27;96610.31;;;7.76;36.19
6136;BME280;24008;42.664;23.372;2024-01-30T07:29:53;96662.69;;;8.79;36.53
6136;BME280;24008;42.664;23.372;2024-01-30T07:32:20;96689.06;;;9.55;34.57
6136;BME280;24008;42.664;23.372;2024-01-30T07:34:47;96710.31;;;10.44;32.87
6136;BME280;24008;42.664;23.372;2024-01-30T07:37:13;96693.41;;;11.11;32.23
6136;BME280;24008;42.664;23.372;2024-01-30T07:39:41;96668.28;;;11.03;31.73
6136;BME280;24008;42.664;23.372;2024-01-30T07:42:08;96629.56;;;10.68;31.80
6136;BME280;24008;42.664;23.372;2024-01-30T07:44:36;96696.53;;;10.18;31.48
6136;BME280;24008;42.664;23.372;2024-01-30T07:47:03;96691.50;;;10.73;31.64
6136;BME280;24008;42.664;23.372;2024-01-30T07:49:30;96658.19;;;10.88;30.44
6136;BME280;24008;42.664;23.372;2024-01-30T07:51:59;96657.63;;;10.97;30.26
6136;BME280;24008;42.664;23.372;2024-01-30T07:54:26;96688.59;;;11.33;30.90
6136;BME280;24008;42.664;23.372;2024-01-30T07:56:52;96487.06;;;10.02;30.22
6136;BME280;24008;42.664;23.372;2024-01-30T07:59:20;96638.91;;;10.96;29.58
6136;BME280;24008;42.664;23.372;2024-01-30T08:01:51;96657.34;;;11.28;29.67
6136;BME280;24008;42.664;23.372;2024-01-30T08:04:18;96659.16;;;11.26;29.63
6136;BME280;24008;42.664;23.372;2024-01-30T08:06:44;96658.25;;;11.67;29.52
6136;BME280;24008;42.664;23.372;2024-01-30T08:09:11;96663.63;;;12.27;28.38
6136;BME280;24008;42.664;23.372;2024-01-30T08:11:38;96689.34;;;12.63;28.42
6136;BME280;24008;42.664;23.372;2024-01-30T08:14:04;96670.63;;;10.94;29.32
6136;BME280;24008;42.664;23.372;2024-01-30T08:16:31;96681.09;;;11.03;29.90
6136;BME280;24008;42.664;23.372;2024-01-30T08:18:59;96654.88;;;10.16;30.56
6136;BME280;24008;42.664;23.372;2024-01-30T08:21:26;96644.38;;;10.06;30.62
6136;BME280;24008;42.664;23.372;2024-01-30T08:23:53;96688.88;;;10.46;30.75
6136;BME280;24008;42.664;23.372;2024-01-30T08:26:20;96688.81;;;11.16;30.16
6136;BME280;24008;42.664;23.372;2024-01-30T08:28:46;96654.03;;;11.26;29.71
6136;BME280;24008;42.664;23.372;2024-01-30T08:31:13;96663.69;;;10.81;29.84
6136;BME280;24008;42.664;23.372;2024-01-30T08:33:40;96684.44;;;9.62;31.65
6136;BME280;24008;42.664;23.372;2024-01-30T08:36:08;96588.97;;;8.90;31.85
6136;BME280;24008;42.664;23.372;2024-01-30T08:38:35;96689.34;;;10.25;31.36
6136;BME280;24008;42.664;23.372;2024-01-30T08:41:01;96663.88;;;9.93;30.65
6136;BME280;24008;42.664;23.372;2024-01-30T08:43:28;96691.63;;;9.25;30.84
6136;BME280;24008;42.664;23.372;2024-01-30T08:45:55;96707.91;;;8.10;32.88
6136;BME280;24008;42.664;23.372;2024-01-30T08:48:22;96705.28;;;6.89;34.24
6136;BME280;24008;42.664;23.372;2024-01-30T08:50:50;96705.13;;;5.97;36.28
6136;BME280;24008;42.664;23.372;2024-01-30T08:53:18;96707.91;;;5.28;37.91
6136;BME280;24008;42.664;23.372;2024-01-30T08:55:45;96544.09;;;4.42;38.24
6136;BME280;24008;42.664;23.372;2024-01-30T08:58:12;96700.94;;;5.33;38.08
6136;BME280;24008;42.664;23.372;2024-01-30T09:00:39;96706.06;;;4.88;39.75
6136;BME280;24008;42.664;23.372;2024-01-30T09:03:05;96716.03;;;5.36;39.97
6136;BME280;24008;42.664;23.372;2024-01-30T09:05:32;96652.97;;;5.29;38.70
6136;BME280;24008;42.664;23.372;2024-01-30T09:07:59;96701.66;;;5.37;39.32
6136;BME280;24008;42.664;23.372;2024-01-30T09:10:27;96711.19;;;4.87;40.29
6136;BME280;24008;42.664;23.372;2024-01-30T09:12:53;96699.47;;;4.39;40.85
6136;BME280;24008;42.664;23.372;2024-01-30T09:15:20;96680.19;;;4.12;40.99
6136;BME280;24008;42.664;23.372;2024-01-30T09:17:47;96672.94;;;4.03;42.17
6136;BME280;24008;42.664;23.372;2024-01-30T09:20:13;96701.69;;;4.00;42.28
6136;BME280;24008;42.664;23.372;2024-01-30T09:22:40;96692.56;;;3.96;41.93
6136;BME280;24008;42.664;23.372;2024-01-30T09:25:07;96690.22;;;3.90;43.35
6136;BME280;24008;42.664;23.372;2024-01-30T09:27:35;96681.00;;;4.82;42.20
6136;BME280;24008;42.664;23.372;2024-01-30T09:30:02;96684.34;;;5.04;40.70
6136;BME280;24008;42.664;23.372;2024-01-30T09:32:29;96684.25;;;5.28;41.91
6136;BME280;24008;42.664;23.372;2024-01-30T09:34:56;96680.50;;;6.75;39.89
6136;BME280;24008;42.664;23.372;2024-01-30T09:37:23;96681.81;;;8.22;37.46
6136;BME280;24008;42.664;23.372;2024-01-30T09:39:49;96661.31;;;9.19;35.80
6136;BME280;24008;42.664;23.372;2024-01-30T09:42:20;96677.75;;;10.03;34.69
6136;BME280;24008;42.664;23.372;2024-01-30T09:44:54;96642.78;;;10.20;33.36
6136;BME280;24008;42.664;23.372;2024-01-30T09:47:21;96666.47;;;10.64;33.33
6136;BME280;24008;42.664;23.372;2024-01-30T09:49:49;96651.78;;;10.95;31.89
6136;BME280;24008;42.664;23.372;2024-01-30T09:52:16;96668.28;;;11.30;31.43
6136;BME280;24008;42.664;23.372;2024-01-30T09:54:45;96666.81;;;9.87;32.05
6136;BME280;24008;42.664;23.372;2024-01-30T09:57:11;96632.94;;;7.82;34.91
6136;BME280;24008;42.664;23.372;2024-01-30T09:59:38;96314.00;;;4.54;36.96
6136;BME280;24008;42.664;23.372;2024-01-30T10:02:06;96655.00;;;6.02;38.45
6136;BME280;24008;42.664;23.372;2024-01-30T10:04:33;96667.84;;;5.57;39.43
6136;BME280;24008;42.664;23.372;2024-01-30T10:07:01;96667.84;;;5.16;40.19
6136;BME280;24008;42.664;23.372;2024-01-30T10:09:31;96665.91;;;4.79;40.42
6136;BME280;24008;42.664;23.372;2024-01-30T10:11:58;96671.94;;;4.75;40.56
6136;BME280;24008;42.664;23.372;2024-01-30T10:14:25;96625.03;;;5.08;41.52
6136;BME280;24008;42.664;23.372;2024-01-30T10:16:52;96478.59;;;4.75;40.20
6136;BME280;24008;42.664;23.372;2024-01-30T10:19:20;96639.13;;;5.36;40.14
6136;BME280;24008;42.664;23.372;2024-01-30T10:21:47;96665.34;;;5.15;41.16
6136;BME280;24008;42.664;23.372;2024-01-30T10:24:13;96623.19;;;4.70;40.95
6136;BME280;24008;42.664;23.372;2024-01-30T10:26:40;96650.59;;;4.59;41.69
6136;BME280;24008;42.664;23.372;2024-01-30T10:29:09;96623.91;;;4.28;42.30
6136;BME280;24008;42.664;23.372;2024-01-30T10:31:36;96672.22;;;4.46;42.47
6136;BME280;24008;42.664;23.372;2024-01-30T10:34:03;96666.84;;;4.08;43.65
6136;BME280;24008;42.664;23.372;2024-01-30T10:36:35;96640.06;;;3.78;43.39
6136;BME280;24008;42.664;23.372;2024-01-30T10:39:06;96628.88;;;3.35;44.10
6136;BME280;24008;42.664;23.372;2024-01-30T10:41:39;96662.78;;;3.54;45.00
6136;BME280;24008;42.664;23.372;2024-01-30T10:44:10;96666.81;;;3.85;44.82
6136;BME280;24008;42.664;23.372;2024-01-30T10:46:38;96650.34;;;3.98;44.42
6136;BME280;24008;42.664;23.372;2024-01-30T10:49:06;96621.19;;;3.63;44.75
6136;BME280;24008;42.664;23.372;2024-01-30T10:51:34;96628.53;;;3.71;45.37
6136;BME280;24008;42.664;23.372;2024-01-30T10:54:03;96651.31;;;3.94;44.90
6136;BME280;24008;42.664;23.372;2024-01-30T10:56:32;96641.78;;;4.01;43.92
6136;BME280;24008;42.664;23.372;2024-01-30T10:59:00;96640.41;;;4.15;43.84
6136;BME280;24008;42.664;23.372;2024-01-30T11:01:27;96605.34;;;4.06;43.21
6136;BME280;24008;42.664;23.372;2024-01-30T11:03:55;96621.47;;;4.25;43.51
6136;BME280;24008;42.664;23.372;2024-01-30T11:06:23;96634.81;;;4.30;44.19
6136;BME280;24008;42.664;23.372;2024-01-30T11:09:01;96633.75;;;4.36;43.71
6136;BME280;24008;42.664;23.372;2024-01-30T11:11:48;96606.16;;;4.07;43.47
6136;BME280;24008;42.664;23.372;2024-01-30T11:14:14;96520.31;;;3.32;45.05
6136;BME280;24008;42.664;23.372;2024-01-30T11:16:41;96592.00;;;3.78;44.90
6136;BME280;24008;42.664;23.372;2024-01-30T11:19:11;96579.16;;;3.84;43.72
6136;BME280;24008;42.664;23.372;2024-01-30T11:21:41;96622.66;;;3.93;44.10
6136;BME280;24008;42.664;23.372;2024-01-30T11:24:09;96629.13;;;3.77;45.14
6136;BME280;24008;42.664;23.372;2024-01-30T11:26:36;96638.84;;;3.65;45.54
6136;BME280;24008;42.664;23.372;2024-01-30T11:29:07;96404.06;;;2.36;45.59
6136;BME280;24008;42.664;23.372;2024-01-30T11:31:34;96554.34;;;3.22;45.61
6136;BME280;24008;42.664;23.372;2024-01-30T11:34:01;96620.34;;;3.62;45.58
6136;BME280;24008;42.664;23.372;2024-01-30T11:36:29;96618.13;;;3.78;44.78
6136;BME280;24008;42.664;23.372;2024-01-30T11:38:57;96624.34;;;3.93;44.99
6136;BME280;24008;42.664;23.372;2024-01-30T11:41:25;96594.19;;;3.63;44.35
6136;BME280;24008;42.664;23.372;2024-01-30T11:43:52;96629.03;;;3.55;45.05
6136;BME280;24008;42.664;23.372;2024-01-30T11:46:19;96624.25;;;3.73;44.46
6136;BME280;24008;42.664;23.372;2024-01-30T11:48:46;96620.50;;;3.83;45.16
6136;BME280;24008;42.664;23.372;2024-01-30T11:51:13;96618.97;;;4.02;44.19
6136;BME280;24008;42.664;23.372;2024-01-30T11:53:41;96591.84;;;4.06;44.09
6136;BME280;24008;42.664;23.372;2024-01-30T11:56:07;96610.06;;;4.37;43.31
6136;BME280;24008;42.664;23.372;2024-01-30T11:58:36;96601.19;;;4.27;44.17
6136;BME280;24008;42.664;23.372;2024-01-30T12:01:02;96601.63;;;4.15;44.46
6136;BME280;24008;42.664;23.372;2024-01-30T12:03:29;96597.50;;;4.12;44.48
6136;BME280;24008;42.664;23.372;2024-01-30T12:05:56;96567.94;;;3.68;44.87
6136;BME280;24008;42.664;23.372;2024-01-30T12:08:24;96555.16;;;3.47;45.52
6136;BME280;24008;42.664;23.372;2024-01-30T12:10:55;96578.03;;;3.68;45.35
6136;BME280;24008;42.664;23.372;2024-01-30T12:13:22;96576.19;;;3.73;45.34
6136;BME280;24008;42.664;23.372;2024-01-30T12:15:51;96545.34;;;3.38;45.97
6136;BME280;24008;42.664;23.372;2024-01-30T12:18:18;96546.81;;;3.20;45.67
6136;BME280;24008;42.664;23.372;2024-01-30T12:20:45;96573.56;;;3.26;45.97
6136;BME280;24008;42.664;23.372;2024-01-30T12:23:12;96536.16;;;3.12;46.01
6136;BME280;24008;42.664;23.372;2024-01-30T12:25:39;96572.41;;;3.36;46.25
6136;BME280;24008;42.664;23.372;2024-01-30T12:28:06;96566.63;;;3.08;46.46
6136;BME280;24008;42.664;23.372;2024-01-30T12:30:34;96526.53;;;2.72;46.99
6136;BME280;24008;42.664;23.372;2024-01-30T12:33:02;96569.97;;;2.82;47.34
6136;BME280;24008;42.664;23.372;2024-01-30T12:35:31;96540.28;;;2.64;47.04
6136;BME280;24008;42.664;23.372;2024-01-30T12:37:57;96496.94;;;2.51;47.78
6136;BME280;24008;42.664;23.372;2024-01-30T12:40:24;96552.47;;;3.02;46.86
6136;BME280;24008;42.664;23.372;2024-01-30T12:42:51;96438.97;;;2.48;47.09
6136;BME280;24008;42.664;23.372;2024-01-30T12:45:18;96532.06;;;3.08;46.73
6136;BME280;24008;42.664;23.372;2024-01-30T12:47:47;96533.25;;;2.98;46.55
6136;BME280;24008;42.664;23.372;2024-01-30T12:50:15;96549.63;;;3.13;47.17
6136;BME280;24008;42.664;23.372;2024-01-30T12:52:43;96542.78;;;3.15;47.33
6136;BME280;24008;42.664;23.372;2024-01-30T12:55:09;96549.72;;;3.10;46.76
6136;BME280;24008;42.664;23.372;2024-01-30T12:57:36;96475.41;;;2.66;46.92
6136;BME280;24008;42.664;23.372;2024-01-30T13:00:05;96535.06;;;2.95;47.63
6136;BME280;24008;42.664;23.372;2024-01-30T13:02:33;96539.91;;;3.01;47.43
6136;BME280;24008;42.664;23.372;2024-01-30T13:05:02;96459.28;;;2.70;46.83
6136;BME280;24008;42.664;23.372;2024-01-30T13:07:31;96410.41;;;2.47;47.00
6136;BME280;24008;42.664;23.372;2024-01-30T13:09:58;96529.41;;;3.13;47.52